Time;durP1;ratioP1;P1;durP2;ratioP2;P2;SDS_P1;SDS_P2;PMS_P1;PMS_P2;Temp;Humidity;BMP_temperature;BMP_pressure;BME280_temperature;BME280_humidity;BME280_pressure;Samples;Min_cycle;Max_cycle;Signal;HPM_P1;HPM_P2
2023/11/01 00:02:19;;;;;;;2.65;1.65;;;24.40;59.40;;;;;;6198840;28;85074;-68
2023/11/01 00:05:20;;;;;;;4.28;1.80;;;24.40;59.30;;;;;;6182968;28;80961;-69
2023/11/01 00:08:20;;;;;;;4.38;1.95;;;24.40;59.50;;;;;;6189611;28;80592;-68
2023/11/01 00:11:21;;;;;;;2.40;1.67;;;24.30;59.50;;;;;;6180567;28;82386;-70
2023/11/01 00:14:21;;;;;;;3.38;1.52;;;24.30;59.50;;;;;;6214465;28;80409;-68
2023/11/01 00:17:22;;;;;;;2.55;1.52;;;24.40;59.40;;;;;;6205728;28;80943;-71
2023/11/01 00:20:22;;;;;;;3.20;1.83;;;24.40;59.20;;;;;;6227455;27;80478;-72
2023/11/01 00:23:23;;;;;;;2.83;1.67;;;24.30;59.20;;;;;;6214731;28;81399;-72
2023/11/01 00:26:23;;;;;;;2.22;1.67;;;24.40;59.30;;;;;;6210529;27;81706;-73
2023/11/01 00:29:28;;;;;;;1.90;1.50;;;24.30;59.20;;;;;;6203886;28;81858;-73
2023/11/01 00:32:29;;;;;;;2.70;1.83;;;24.30;59.10;;;;;;6179707;28;80638;-71
2023/11/01 00:35:29;;;;;;;3.05;1.83;;;24.30;59.10;;;;;;6181614;28;83332;-70
2023/11/01 00:38:32;;;;;;;2.42;1.83;;;24.30;59.10;;;;;;6201135;28;80512;-67
2023/11/01 00:41:33;;;;;;;2.20;1.50;;;24.30;59.00;;;;;;6200126;28;82636;-68
2023/11/01 00:44:33;;;;;;;1.92;1.40;;;24.30;59.20;;;;;;6160202;28;82271;-68
2023/11/01 00:47:34;;;;;;;2.55;1.48;;;24.30;59.20;;;;;;6160134;28;81630;-66
2023/11/01 00:50:34;;;;;;;3.00;1.50;;;24.30;59.10;;;;;;6183485;28;80254;-70
2023/11/01 00:53:35;;;;;;;2.05;1.30;;;24.30;59.20;;;;;;6209445;28;80842;-69
2023/11/01 00:56:35;;;;;;;2.45;1.67;;;24.30;59.20;;;;;;6175185;28;80518;-68
2023/11/01 00:59:36;;;;;;;2.40;1.50;;;24.30;59.00;;;;;;6174177;28;80267;-70
2023/11/01 01:02:36;;;;;;;2.53;1.50;;;24.30;59.10;;;;;;6175817;28;81557;-70
2023/11/01 01:05:37;;;;;;;2.35;1.80;;;24.30;58.90;;;;;;6168962;28;81483;-71
2023/11/01 01:08:37;;;;;;;2.08;1.48;;;24.30;59.00;;;;;;6188130;27;82428;-70
2023/11/01 01:11:38;;;;;;;1.73;1.38;;;24.30;59.00;;;;;;6175360;28;83161;-70
2023/11/01 01:14:38;;;;;;;2.25;1.60;;;24.30;59.00;;;;;;6162483;28;80159;-71
2023/11/01 01:17:39;;;;;;;2.90;1.50;;;24.30;59.00;;;;;;6215281;27;80264;-71
2023/11/01 01:20:39;;;;;;;2.28;1.50;;;24.30;58.90;;;;;;6193170;28;81452;-69
2023/11/01 01:23:40;;;;;;;2.58;1.55;;;24.30;58.90;;;;;;6194405;28;81648;-70
2023/11/01 01:26:40;;;;;;;1.70;1.30;;;24.30;59.00;;;;;;6181429;28;83289;-69
2023/11/01 01:29:41;;;;;;;5.10;1.40;;;24.30;59.00;;;;;;6184574;28;83227;-69
2023/11/01 01:32:41;;;;;;;1.33;1.23;;;24.30;59.00;;;;;;6188759;28;80374;-70
2023/11/01 01:35:42;;;;;;;1.52;1.40;;;24.20;58.80;;;;;;6182581;28;81243;-70
2023/11/01 01:38:42;;;;;;;3.30;1.55;;;24.20;58.90;;;;;;6162932;28;80506;-70
2023/11/01 01:41:43;;;;;;;4.30;1.40;;;24.30;58.70;;;;;;6152031;28;82296;-70
2023/11/01 01:44:43;;;;;;;4.60;1.88;;;24.20;58.70;;;;;;6159474;28;80551;-69
2023/11/01 01:47:44;;;;;;;1.65;1.40;;;24.20;58.70;;;;;;6202781;28;81859;-70
2023/11/01 01:50:44;;;;;;;3.38;1.38;;;24.20;58.70;;;;;;6184111;28;83281;-73
2023/11/01 01:53:45;;;;;;;2.38;1.50;;;24.20;58.90;;;;;;6196124;28;80597;-72
2023/11/01 01:56:45;;;;;;;3.22;1.70;;;24.20;58.60;;;;;;6174951;28;81776;-72
2023/11/01 01:59:46;;;;;;;2.53;1.65;;;24.30;58.60;;;;;;6177088;28;80583;-72
2023/11/01 02:02:47;;;;;;;2.83;1.92;;;24.30;58.60;;;;;;6185383;28;81789;-71
2023/11/01 02:05:47;;;;;;;3.35;1.60;;;24.30;58.50;;;;;;6174480;28;80868;-72
2023/11/01 02:08:48;;;;;;;1.30;1.20;;;24.30;58.50;;;;;;6180981;27;82198;-70
2023/11/01 02:11:48;;;;;;;2.22;1.65;;;24.30;58.50;;;;;;6170935;28;83499;-71
2023/11/01 02:14:49;;;;;;;2.78;1.55;;;24.20;58.50;;;;;;6180851;28;83181;-70
2023/11/01 02:17:50;;;;;;;1.25;1.13;;;24.20;58.50;;;;;;6189443;28;81812;-71
2023/11/01 02:20:52;;;;;;;1.77;1.38;;;24.20;58.50;;;;;;6169961;28;81701;-70
2023/11/01 02:23:52;;;;;;;2.03;1.40;;;24.30;58.70;;;;;;6161649;28;83305;-69
2023/11/01 02:26:53;;;;;;;1.50;1.17;;;24.20;58.60;;;;;;6166247;28;81185;-68
2023/11/01 02:29:53;;;;;;;2.33;1.30;;;24.30;58.50;;;;;;6166718;28;81677;-68
2023/11/01 02:32:54;;;;;;;1.77;1.35;;;24.20;58.40;;;;;;6154716;28;80251;-72
2023/11/01 02:35:54;;;;;;;2.85;1.33;;;24.20;58.50;;;;;;6169161;28;81899;-67
2023/11/01 02:38:55;;;;;;;1.85;1.30;;;24.20;58.40;;;;;;6157615;28;80991;-67
2023/11/01 02:41:55;;;;;;;1.33;1.20;;;24.20;58.70;;;;;;6163223;28;81693;-65
2023/11/01 02:44:56;;;;;;;3.20;1.52;;;24.20;58.70;;;;;;6170804;28;80190;-71
2023/11/01 02:47:56;;;;;;;2.70;1.40;;;24.20;58.70;;;;;;6168398;28;80266;-62
2023/11/01 02:50:57;;;;;;;2.03;1.40;;;24.10;58.60;;;;;;6159058;28;82713;-63
2023/11/01 02:53:57;;;;;;;1.52;1.20;;;24.20;58.70;;;;;;6202965;28;81056;-63
2023/11/01 02:56:59;;;;;;;2.38;1.30;;;24.20;58.80;;;;;;6226633;27;80769;-63
2023/11/01 02:59:59;;;;;;;1.77;1.10;;;24.10;58.60;;;;;;6224845;28;81577;-62
2023/11/01 03:03:00;;;;;;;1.83;1.23;;;24.20;58.40;;;;;;6225755;27;80557;-63
2023/11/01 03:06:00;;;;;;;1.20;1.10;;;24.20;58.30;;;;;;6213463;28;83093;-67
2023/11/01 03:09:03;;;;;;;1.35;1.15;;;24.20;58.30;;;;;;6199625;28;82284;-68
2023/11/01 03:12:04;;;;;;;2.28;1.42;;;24.20;58.20;;;;;;6207031;27;81384;-69
2023/11/01 03:15:07;;;;;;;1.85;1.30;;;24.10;58.30;;;;;;6186360;28;83614;-69
2023/11/01 03:18:07;;;;;;;3.65;1.30;;;24.10;58.20;;;;;;6181747;28;82104;-70
2023/11/01 03:21:08;;;;;;;1.63;1.02;;;24.20;58.30;;;;;;6167707;28;81947;-68
2023/11/01 03:24:08;;;;;;;1.77;1.20;;;24.10;58.20;;;;;;6177745;28;80441;-72
2023/11/01 03:27:09;;;;;;;1.60;1.02;;;24.10;58.20;;;;;;6182827;28;80642;-77
2023/11/01 03:30:09;;;;;;;2.88;1.17;;;24.10;58.10;;;;;;6196240;28;80503;-72
2023/11/01 03:33:10;;;;;;;1.20;1.00;;;24.20;58.10;;;;;;6184848;28;81507;-71
2023/11/01 03:36:11;;;;;;;1.42;0.90;;;24.20;58.00;;;;;;6178224;28;81615;-72
2023/11/01 03:39:11;;;;;;;2.03;1.30;;;24.10;57.90;;;;;;6184223;28;80871;-71
2023/11/01 03:42:12;;;;;;;2.28;1.10;;;24.10;57.90;;;;;;6178761;28;82989;-63
2023/11/01 03:45:12;;;;;;;1.40;1.23;;;24.20;58.00;;;;;;6192576;28;80837;-63
2023/11/01 03:48:13;;;;;;;3.53;1.42;;;24.20;57.90;;;;;;6190436;28;83063;-63
2023/11/01 03:51:13;;;;;;;1.63;1.30;;;24.30;58.10;;;;;;6132661;28;86928;-65
2023/11/01 03:54:14;;;;;;;1.35;1.25;;;24.20;57.90;;;;;;6180512;28;83323;-65
2023/11/01 03:57:14;;;;;;;1.23;1.00;;;24.20;57.90;;;;;;6169194;28;80986;-64
2023/11/01 04:00:20;;;;;;;1.15;1.00;;;24.20;57.90;;;;;;6194192;28;80579;-68
2023/11/01 04:03:21;;;;;;;3.88;1.42;;;24.20;57.90;;;;;;6176569;28;82358;-68
2023/11/01 04:06:22;;;;;;;1.30;1.20;;;24.20;57.80;;;;;;6152082;28;84475;-70
2023/11/01 04:09:22;;;;;;;1.45;1.10;;;24.20;58.00;;;;;;6157153;28;87866;-71
2023/11/01 04:12:23;;;;;;;2.70;1.23;;;24.20;58.20;;;;;;6159688;28;82197;-73
2023/11/01 04:15:23;;;;;;;1.25;1.10;;;24.30;58.10;;;;;;6165216;28;82512;-72
2023/11/01 04:18:24;;;;;;;1.83;1.20;;;24.20;58.10;;;;;;6161504;28;81384;-73
2023/11/01 04:21:24;;;;;;;1.25;1.15;;;24.30;58.00;;;;;;6062133;28;82174;-73
2023/11/01 04:24:25;;;;;;;1.13;1.00;;;24.20;58.00;;;;;;6034814;28;82731;-71
2023/11/01 04:27:26;;;;;;;1.52;1.38;;;24.30;57.80;;;;;;6040639;28;82287;-76
2023/11/01 04:30:26;;;;;;;2.10;1.42;;;24.30;58.10;;;;;;6048740;28;82157;-72
2023/11/01 04:33:27;;;;;;;4.15;0.90;;;24.30;58.00;;;;;;6126187;28;81342;-71
2023/11/01 04:36:27;;;;;;;4.53;1.10;;;24.30;57.90;;;;;;6158993;28;81348;-76
2023/11/01 04:39:28;;;;;;;1.10;1.00;;;24.30;57.90;;;;;;6166416;28;82245;-75
2023/11/01 04:42:28;;;;;;;2.83;1.27;;;24.30;57.80;;;;;;6172533;28;80587;-68
2023/11/01 04:45:31;;;;;;;1.63;1.00;;;24.30;57.70;;;;;;6165495;28;80718;-75
2023/11/01 04:48:31;;;;;;;1.88;1.17;;;24.30;57.60;;;;;;6171526;28;83021;-73
2023/11/01 04:51:32;;;;;;;1.80;1.30;;;24.30;57.40;;;;;;6189796;28;81040;-72
2023/11/01 04:54:33;;;;;;;2.53;1.10;;;24.30;57.40;;;;;;6189511;28;80910;-73
2023/11/01 04:57:33;;;;;;;1.40;1.30;;;24.30;57.40;;;;;;6174131;28;81255;-74
2023/11/01 05:00:34;;;;;;;1.50;1.17;;;24.40;57.60;;;;;;6164800;28;82082;-67
2023/11/01 05:03:35;;;;;;;3.33;1.10;;;24.40;57.60;;;;;;6161744;28;80557;-68
2023/11/01 05:06:35;;;;;;;1.67;1.10;;;24.40;57.30;;;;;;6164408;28;80017;-73
2023/11/01 05:09:36;;;;;;;1.73;1.10;;;24.40;57.30;;;;;;6150988;28;80256;-69
2023/11/01 05:12:36;;;;;;;3.10;1.38;;;24.40;57.40;;;;;;6176514;28;83528;-72
2023/11/01 05:15:37;;;;;;;4.28;1.23;;;24.40;57.30;;;;;;6191409;28;82861;-68
2023/11/01 05:18:37;;;;;;;1.48;1.20;;;24.40;57.40;;;;;;6182844;28;83236;-71
2023/11/01 05:21:38;;;;;;;0.90;0.90;;;24.40;57.40;;;;;;6175784;28;80831;-71
2023/11/01 05:24:38;;;;;;;2.65;1.05;;;24.40;57.40;;;;;;6170446;28;80692;-70
2023/11/01 05:27:39;;;;;;;3.45;1.00;;;24.40;57.30;;;;;;6195211;28;81239;-71
2023/11/01 05:30:39;;;;;;;1.67;1.10;;;24.40;57.30;;;;;;6193738;28;82149;-69
2023/11/01 05:33:40;;;;;;;4.28;1.02;;;24.40;57.30;;;;;;6175663;28;84749;-68
2023/11/01 05:36:40;;;;;;;4.90;1.27;;;24.40;56.90;;;;;;6188515;28;80510;-69
2023/11/01 05:39:41;;;;;;;3.50;1.10;;;24.40;57.10;;;;;;6177550;28;80370;-69
2023/11/01 05:42:42;;;;;;;2.15;1.25;;;24.40;57.40;;;;;;6178630;28;80416;-72
2023/11/01 05:45:42;;;;;;;0.80;0.70;;;24.40;57.30;;;;;;6180409;28;80787;-66
2023/11/01 05:48:43;;;;;;;2.03;1.08;;;24.40;57.20;;;;;;6158043;28;83189;-66
2023/11/01 05:51:43;;;;;;;4.30;1.50;;;24.40;57.00;;;;;;6183081;28;80632;-67
2023/11/01 05:54:44;;;;;;;4.60;1.40;;;24.40;57.00;;;;;;6177338;28;80855;-64
2023/11/01 05:57:44;;;;;;;2.00;1.42;;;24.40;57.00;;;;;;6161577;28;84893;-64
2023/11/01 06:00:45;;;;;;;4.15;1.30;;;24.40;57.20;;;;;;6164760;28;82753;-66
2023/11/01 06:03:50;;;;;;;9.93;1.30;;;24.40;58.10;;;;;;6162309;28;80490;-70
2023/11/01 06:06:51;;;;;;;2.30;1.42;;;24.50;57.90;;;;;;6167117;28;84616;-64
2023/11/01 06:09:51;;;;;;;10.55;1.25;;;24.50;58.10;;;;;;6162400;28;83142;-66
2023/11/01 06:12:52;;;;;;;7.90;2.03;;;24.50;58.10;;;;;;6163979;28;80394;-69
2023/11/01 06:15:53;;;;;;;1.10;0.90;;;24.50;57.90;;;;;;6191167;28;80766;-64
2023/11/01 06:18:53;;;;;;;6.78;1.20;;;24.50;57.70;;;;;;6199933;28;81226;-64
2023/11/01 06:21:54;;;;;;;2.72;1.25;;;24.50;57.70;;;;;;6203592;28;82734;-64
2023/11/01 06:24:55;;;;;;;7.00;1.10;;;24.50;57.60;;;;;;6202412;28;80745;-65
2023/11/01 06:27:55;;;;;;;2.20;1.30;;;24.50;57.60;;;;;;6195370;28;80733;-65
2023/11/01 06:30:56;;;;;;;6.38;1.42;;;24.50;57.40;;;;;;6185023;28;80930;-67
2023/11/01 06:33:57;;;;;;;1.85;1.00;;;24.50;57.50;;;;;;6189821;28;79941;-66
2023/11/01 06:36:57;;;;;;;2.05;1.30;;;24.50;57.30;;;;;;6194353;28;83570;-68
2023/11/01 06:39:57;;;;;;;6.18;1.15;;;24.40;57.00;;;;;;6192851;27;80964;-66
2023/11/01 06:42:58;;;;;;;11.88;1.65;;;24.40;56.90;;;;;;6174527;28;85888;-70
2023/11/01 06:45:58;;;;;;;7.35;1.65;;;24.40;57.30;;;;;;6190280;28;84359;-74
2023/11/01 06:48:59;;;;;;;1.85;1.48;;;24.40;58.30;;;;;;6191823;27;81691;-68
2023/11/01 06:51:59;;;;;;;10.18;2.30;;;24.40;58.20;;;;;;6195743;28;80962;-71
2023/11/01 06:55:00;;;;;;;5.18;2.65;;;24.40;58.40;;;;;;6223756;27;80284;-67
2023/11/01 06:58:00;;;;;;;9.30;3.22;;;24.40;58.70;;;;;;6159266;28;80557;-69
2023/11/01 07:01:01;;;;;;;12.48;2.92;;;24.40;58.90;;;;;;6188797;28;81005;-63
2023/11/01 07:04:01;;;;;;;14.35;3.90;;;24.40;59.30;;;;;;6192795;28;80525;-64
2023/11/01 07:07:03;;;;;;;13.32;3.55;;;24.50;59.50;;;;;;6177023;28;81662;-67
2023/11/01 07:10:05;;;;;;;12.63;5.50;;;24.60;60.30;;;;;;6194088;28;80947;-67
2023/11/01 07:13:06;;;;;;;9.30;5.18;;;24.60;60.50;;;;;;6174501;28;80788;-67
2023/11/01 07:16:07;;;;;;;13.52;5.75;;;24.60;60.50;;;;;;6178032;28;80365;-70
2023/11/01 07:19:07;;;;;;;12.38;5.63;;;24.60;60.40;;;;;;6183981;28;82141;-68
2023/11/01 07:22:08;;;;;;;13.35;4.05;;;24.50;59.50;;;;;;6178696;28;80515;-72
2023/11/01 07:25:08;;;;;;;9.95;4.18;;;24.60;59.20;;;;;;6186701;28;85222;-70
2023/11/01 07:28:09;;;;;;;13.25;4.07;;;24.50;58.90;;;;;;6181094;28;84985;-72
2023/11/01 07:31:09;;;;;;;11.57;4.10;;;24.50;58.40;;;;;;6141739;28;81772;-69
2023/11/01 07:34:10;;;;;;;5.53;3.35;;;24.50;58.80;;;;;;6139284;28;81831;-68
2023/11/01 07:37:10;;;;;;;8.90;2.65;;;24.60;58.60;;;;;;6131139;28;81460;-67
2023/11/01 07:40:11;;;;;;;7.28;3.10;;;24.60;58.20;;;;;;6131622;28;81406;-65
2023/11/01 07:43:11;;;;;;;5.88;3.22;;;24.60;57.90;;;;;;6130647;28;83724;-67
2023/11/01 07:46:12;;;;;;;4.97;2.47;;;24.70;57.30;;;;;;6141193;28;81445;-67
2023/11/01 07:49:12;;;;;;;3.55;1.90;;;24.70;56.50;;;;;;6130136;28;80926;-65
2023/11/01 07:52:13;;;;;;;3.17;1.90;;;24.70;55.90;;;;;;6151047;28;82484;-64
2023/11/01 07:55:14;;;;;;;4.50;2.20;;;24.80;55.40;;;;;;6166119;28;82690;-66
2023/11/01 07:58:14;;;;;;;4.60;1.55;;;24.80;55.30;;;;;;6176977;28;80938;-68
2023/11/01 08:01:15;;;;;;;2.10;1.60;;;24.80;54.80;;;;;;6172089;28;81261;-68
2023/11/01 08:04:17;;;;;;;4.85;1.60;;;24.80;54.20;;;;;;6176495;28;83726;-66
2023/11/01 08:07:17;;;;;;;3.40;1.45;;;24.80;53.70;;;;;;6175339;28;82024;-69
2023/11/01 08:10:18;;;;;;;1.77;1.20;;;24.90;54.50;;;;;;6167932;28;81744;-67
2023/11/01 08:13:18;;;;;;;1.88;1.15;;;24.90;54.10;;;;;;6170715;28;83924;-69
2023/11/01 08:16:19;;;;;;;3.58;1.20;;;25.00;53.60;;;;;;6169917;28;81579;-66
2023/11/01 08:19:19;;;;;;;3.13;1.38;;;25.00;53.50;;;;;;6172225;28;81705;-67
2023/11/01 08:22:20;;;;;;;1.80;1.10;;;25.10;53.40;;;;;;6175537;28;81201;-67
2023/11/01 08:25:22;;;;;;;1.63;1.20;;;25.10;52.90;;;;;;6163304;28;81883;-65
2023/11/01 08:28:22;;;;;;;2.15;1.20;;;25.10;52.70;;;;;;6173123;28;81571;-65
2023/11/01 08:31:23;;;;;;;2.03;1.58;;;25.20;52.30;;;;;;6180028;28;81548;-65
2023/11/01 08:34:24;;;;;;;3.92;1.67;;;25.20;52.30;;;;;;6183157;28;82056;-71
2023/11/01 08:37:25;;;;;;;1.27;1.10;;;25.30;51.90;;;;;;6171067;28;81489;-68
2023/11/01 08:40:25;;;;;;;2.22;1.30;;;25.30;51.90;;;;;;6176822;28;81311;-68
2023/11/01 08:43:26;;;;;;;2.95;1.55;;;25.30;51.40;;;;;;6179903;28;81171;-75
2023/11/01 08:46:26;;;;;;;1.73;1.27;;;25.30;51.10;;;;;;6172177;28;81374;-68
2023/11/01 08:49:27;;;;;;;2.70;1.33;;;25.40;51.00;;;;;;6173634;28;81276;-68
2023/11/01 08:52:28;;;;;;;1.17;1.08;;;25.40;50.90;;;;;;6165954;28;82171;-61
2023/11/01 08:55:29;;;;;;;2.40;1.13;;;25.40;50.80;;;;;;6173682;28;81391;-61
2023/11/01 08:58:30;;;;;;;3.17;1.85;;;25.50;50.70;;;;;;6184420;28;81239;-62
2023/11/01 09:01:30;;;;;;;5.13;1.58;;;25.50;50.40;;;;;;6170584;28;82347;-59
2023/11/01 09:04:31;;;;;;;1.98;1.20;;;25.50;50.50;;;;;;6179613;28;83583;-59
2023/11/01 09:07:31;;;;;;;1.60;1.30;;;25.50;50.60;;;;;;6179749;28;81229;-59
2023/11/01 09:10:32;;;;;;;4.28;1.42;;;25.50;50.70;;;;;;6184653;28;81289;-60
2023/11/01 09:13:32;;;;;;;1.77;1.30;;;25.50;50.60;;;;;;6174229;28;82205;-65
2023/11/01 09:16:33;;;;;;;1.52;1.17;;;25.50;50.30;;;;;;6171572;28;84112;-63
2023/11/01 09:19:33;;;;;;;2.45;1.40;;;25.50;49.90;;;;;;6182009;28;81764;-63
2023/11/01 09:22:34;;;;;;;2.90;1.40;;;25.60;49.90;;;;;;6185813;28;81114;-62
2023/11/01 09:25:34;;;;;;;2.72;1.52;;;25.60;49.50;;;;;;6173744;28;80820;-66
2023/11/01 09:28:35;;;;;;;8.65;1.60;;;25.60;49.50;;;;;;6181136;28;81977;-64
2023/11/01 09:31:36;;;;;;;2.80;1.70;;;25.60;49.40;;;;;;6173768;28;82106;-71
2023/11/01 09:34:36;;;;;;;2.60;1.70;;;25.60;49.10;;;;;;6178817;28;81614;-67
2023/11/01 09:37:37;;;;;;;2.65;1.42;;;25.60;49.20;;;;;;6176521;28;80909;-68
2023/11/01 09:40:38;;;;;;;2.22;1.55;;;25.60;48.80;;;;;;6170355;28;80875;-62
2023/11/01 09:43:38;;;;;;;2.05;1.25;;;25.70;48.50;;;;;;6181040;28;81819;-65
2023/11/01 09:46:39;;;;;;;3.90;1.23;;;25.70;48.40;;;;;;6176877;28;81541;-61
2023/11/01 09:49:39;;;;;;;3.15;1.30;;;25.70;48.00;;;;;;6209874;27;80449;-65
2023/11/01 09:52:40;;;;;;;2.22;1.20;;;25.60;48.60;;;;;;6181875;28;81447;-66
2023/11/01 09:55:40;;;;;;;4.10;1.60;;;25.60;48.70;;;;;;6202443;28;81019;-59
2023/11/01 09:58:41;;;;;;;7.50;0.95;;;25.60;49.40;;;;;;6167867;28;83815;-63
2023/11/01 10:01:41;;;;;;;3.83;1.10;;;25.70;49.80;;;;;;6202389;28;80471;-66
2023/11/01 10:04:42;;;;;;;1.88;1.17;;;25.70;49.00;;;;;;6178240;28;80786;-61
2023/11/01 10:07:42;;;;;;;4.32;1.40;;;25.80;49.30;;;;;;6201595;28;80329;-65
2023/11/01 10:10:43;;;;;;;3.08;1.33;;;25.70;47.40;;;;;;6207983;27;80618;-67
2023/11/01 10:13:43;;;;;;;1.67;1.17;;;25.60;48.20;;;;;;6143743;28;81740;-65
2023/11/01 10:16:44;;;;;;;2.42;1.10;;;25.50;48.20;;;;;;6135821;28;81668;-62
2023/11/01 10:19:44;;;;;;;1.20;1.00;;;25.40;47.80;;;;;;6149378;28;82228;-65
2023/11/01 10:22:45;;;;;;;2.92;0.98;;;25.40;47.80;;;;;;6155470;28;81393;-63
2023/11/01 10:25:45;;;;;;;2.47;1.35;;;25.40;48.10;;;;;;6152337;28;81701;-61
2023/11/01 10:28:46;;;;;;;2.85;1.30;;;25.40;47.20;;;;;;6156612;28;81406;-65
2023/11/01 10:31:46;;;;;;;6.95;1.38;;;25.50;47.90;;;;;;6151835;28;81490;-71
2023/11/01 10:34:47;;;;;;;1.83;1.10;;;25.60;47.10;;;;;;6155603;28;81691;-66
2023/11/01 10:37:47;;;;;;;2.72;1.35;;;25.70;47.00;;;;;;6153644;28;85611;-66
2023/11/01 10:40:48;;;;;;;2.25;1.10;;;25.70;47.40;;;;;;6152574;28;80428;-66
2023/11/01 10:43:48;;;;;;;2.25;1.10;;;25.60;47.20;;;;;;6149144;28;81511;-66
2023/11/01 10:46:49;;;;;;;5.45;1.20;;;25.60;47.60;;;;;;6151073;28;81808;-60
2023/11/01 10:49:49;;;;;;;4.03;0.90;;;25.60;47.50;;;;;;6148933;28;81112;-64
2023/11/01 10:52:50;;;;;;;6.57;1.98;;;25.60;47.80;;;;;;6145771;28;81594;-63
2023/11/01 10:55:51;;;;;;;10.25;1.67;;;25.50;47.80;;;;;;6156775;28;82010;-64
2023/11/01 10:58:51;;;;;;;4.18;1.15;;;25.40;47.20;;;;;;6159052;28;81355;-62
2023/11/01 11:01:52;;;;;;;4.28;1.10;;;25.30;48.00;;;;;;6177629;28;80610;-62
2023/11/01 11:04:52;;;;;;;3.40;1.23;;;25.30;48.20;;;;;;6186792;28;81266;-62
2023/11/01 11:07:54;;;;;;;5.45;1.13;;;25.20;47.70;;;;;;6196263;28;82243;-61
2023/11/01 11:10:54;;;;;;;5.95;1.33;;;25.10;48.60;;;;;;6166631;28;84773;-64
2023/11/01 11:13:56;;;;;;;3.40;1.42;;;25.00;48.20;;;;;;6203310;28;80616;-59
2023/11/01 11:16:56;;;;;;;3.55;1.35;;;25.00;48.70;;;;;;6218155;28;80438;-60
2023/11/01 11:19:57;;;;;;;6.50;1.35;;;25.10;48.80;;;;;;6206306;27;80968;-69
2023/11/01 11:22:58;;;;;;;2.85;1.45;;;25.10;49.30;;;;;;6208289;28;81230;-66
2023/11/01 11:25:58;;;;;;;6.28;1.40;;;25.00;49.60;;;;;;6176747;28;85044;-68
2023/11/01 11:28:59;;;;;;;4.93;1.42;;;25.00;49.90;;;;;;6201061;28;80418;-71
2023/11/01 11:31:59;;;;;;;5.65;1.85;;;25.00;50.30;;;;;;6194992;28;81386;-68
2023/11/01 11:35:00;;;;;;;6.88;2.25;;;25.10;50.50;;;;;;6215396;28;80230;-65
2023/11/01 11:38:00;;;;;;;6.60;1.90;;;25.00;50.90;;;;;;6213435;28;81944;-67
2023/11/01 11:41:01;;;;;;;9.30;3.00;;;25.00;51.40;;;;;;6177048;28;81109;-67
2023/11/01 11:44:01;;;;;;;7.32;2.83;;;25.10;52.20;;;;;;6214374;27;83428;-64
2023/11/01 11:47:02;;;;;;;15.27;3.13;;;25.00;52.00;;;;;;6219006;28;80381;-64
2023/11/01 11:50:02;;;;;;;5.68;2.10;;;25.00;52.70;;;;;;6208570;28;81466;-66
2023/11/01 11:53:03;;;;;;;7.40;2.78;;;24.90;52.60;;;;;;6176046;28;80287;-62
2023/11/01 11:56:04;;;;;;;11.85;2.60;;;24.90;52.60;;;;;;6175884;28;82196;-64
2023/11/01 11:59:04;;;;;;;13.32;3.05;;;24.90;52.80;;;;;;6185106;28;82482;-61
2023/11/01 12:02:05;;;;;;;17.17;3.08;;;24.90;53.80;;;;;;6182415;28;80749;-62
2023/11/01 12:05:05;;;;;;;11.77;2.58;;;24.90;54.30;;;;;;6210767;27;80793;-58
2023/11/01 12:08:06;;;;;;;10.40;2.22;;;24.90;54.10;;;;;;6218984;28;80533;-64
2023/11/01 12:11:07;;;;;;;7.38;2.13;;;25.10;54.00;;;;;;6217355;28;80452;-60
2023/11/01 12:14:08;;;;;;;12.13;2.72;;;25.30;54.30;;;;;;6177296;28;80334;-62
2023/11/01 12:17:08;;;;;;;8.73;2.53;;;25.50;54.90;;;;;;6220184;27;82754;-65
2023/11/01 12:20:09;;;;;;;8.40;3.30;;;25.70;55.20;;;;;;6180087;28;82032;-65
2023/11/01 12:23:09;;;;;;;13.60;3.17;;;25.90;55.60;;;;;;6167355;28;80789;-65
2023/11/01 12:26:10;;;;;;;7.13;2.63;;;26.00;56.00;;;;;;6173957;28;82038;-63
2023/11/01 12:29:10;;;;;;;8.68;2.38;;;26.10;56.30;;;;;;6170703;28;81221;-64
2023/11/01 12:32:11;;;;;;;8.32;2.30;;;26.10;56.60;;;;;;6183386;28;80433;-64
2023/11/01 12:35:11;;;;;;;7.25;2.20;;;26.10;58.10;;;;;;6209088;28;81070;-65
2023/11/01 12:38:12;;;;;;;5.47;2.17;;;26.00;58.20;;;;;;6174864;28;82622;-66
2023/11/01 12:41:12;;;;;;;4.13;2.05;;;25.90;58.60;;;;;;6171064;28;80724;-66
2023/11/01 12:44:13;;;;;;;3.95;1.80;;;25.90;59.50;;;;;;6178110;28;80631;-66
2023/11/01 12:47:13;;;;;;;5.97;1.58;;;25.80;60.50;;;;;;6171196;28;81300;-63
2023/11/01 12:50:14;;;;;;;7.80;1.92;;;25.70;60.20;;;;;;6178792;28;81792;-62
2023/11/01 12:53:14;;;;;;;2.92;1.40;;;25.70;60.00;;;;;;6200352;28;83527;-62
2023/11/01 12:56:15;;;;;;;6.18;1.83;;;25.70;59.10;;;;;;6172812;28;80476;-61
2023/11/01 12:59:15;;;;;;;3.55;1.30;;;25.70;58.30;;;;;;6171385;28;80618;-63
2023/11/01 13:02:16;;;;;;;3.22;1.60;;;25.90;57.50;;;;;;6183206;28;81425;-63
2023/11/01 13:05:16;;;;;;;8.55;1.50;;;26.00;56.60;;;;;;6204970;27;80547;-64
2023/11/01 13:08:18;;;;;;;5.57;1.40;;;26.00;56.20;;;;;;6209659;27;80433;-64
2023/11/01 13:11:19;;;;;;;7.68;1.40;;;25.90;56.10;;;;;;6189146;28;81552;-61
2023/11/01 13:14:19;;;;;;;2.30;1.30;;;25.90;56.10;;;;;;6182874;28;81343;-62
2023/11/01 13:17:20;;;;;;;2.15;1.10;;;25.80;56.40;;;;;;6195653;28;80380;-62
2023/11/01 13:20:20;;;;;;;2.65;1.17;;;25.70;56.00;;;;;;6168265;28;80705;-63
2023/11/01 13:23:22;;;;;;;3.33;1.30;;;25.60;56.20;;;;;;6176414;28;80288;-63
2023/11/01 13:26:22;;;;;;;2.42;1.30;;;25.60;56.30;;;;;;6179495;28;80178;-61
2023/11/01 13:29:23;;;;;;;3.33;1.60;;;25.50;56.40;;;;;;6178504;28;80908;-62
2023/11/01 13:32:24;;;;;;;9.65;1.67;;;25.50;56.80;;;;;;6186211;28;80431;-63
2023/11/01 13:35:24;;;;;;;1.35;1.00;;;25.40;56.40;;;;;;6197090;28;81502;-61
2023/11/01 13:38:24;;;;;;;3.28;1.20;;;25.30;56.70;;;;;;6180246;28;81583;-63
2023/11/01 13:41:25;;;;;;;1.10;1.00;;;25.30;56.70;;;;;;6172626;28;83651;-62
2023/11/01 13:44:26;;;;;;;5.35;1.15;;;25.30;56.40;;;;;;6171619;28;80702;-62
2023/11/01 13:47:26;;;;;;;3.42;2.17;;;25.30;56.70;;;;;;6204582;27;80892;-63
2023/11/01 13:50:27;;;;;;;3.28;1.20;;;25.30;55.70;;;;;;6185808;28;83143;-64
2023/11/01 13:53:28;;;;;;;3.03;1.02;;;25.40;55.50;;;;;;6183484;28;80596;-65
2023/11/01 13:56:28;;;;;;;2.40;1.20;;;25.50;54.90;;;;;;6214409;28;82663;-67
2023/11/01 13:59:29;;;;;;;1.92;0.90;;;26.70;56.20;;;;;;6226280;27;80472;-59
2023/11/01 14:02:31;;;;;;;3.95;0.93;;;25.50;55.60;;;;;;6187776;28;81139;-62
2023/11/01 14:05:32;;;;;;;1.50;0.80;;;25.50;55.40;;;;;;6176227;28;80800;-63
2023/11/01 14:08:32;;;;;;;1.23;0.80;;;25.40;55.20;;;;;;6167927;28;80349;-66
2023/11/01 14:11:33;;;;;;;2.97;1.02;;;25.30;55.50;;;;;;6161515;28;83368;-65
2023/11/01 14:14:33;;;;;;;2.30;1.10;;;25.30;55.50;;;;;;6196780;28;87137;-65
2023/11/01 14:17:34;;;;;;;1.10;0.70;;;25.20;55.50;;;;;;6192676;28;82604;-65
2023/11/01 14:20:35;;;;;;;4.97;0.60;;;25.10;56.00;;;;;;6192322;28;82502;-66
2023/11/01 14:23:35;;;;;;;2.15;0.60;;;25.00;55.60;;;;;;6172845;28;82366;-60
2023/11/01 14:26:37;;;;;;;1.08;0.85;;;25.10;54.50;;;;;;6150158;28;81869;-58
2023/11/01 14:29:38;;;;;;;1.33;0.80;;;25.10;55.30;;;;;;6170721;28;84738;-63
2023/11/01 14:32:38;;;;;;;1.35;0.70;;;25.20;54.20;;;;;;6175636;28;88513;-62
2023/11/01 14:35:39;;;;;;;3.03;0.90;;;25.30;54.30;;;;;;6172593;28;81732;-60
2023/11/01 14:38:40;;;;;;;3.17;1.30;;;25.40;54.00;;;;;;6174653;28;81803;-61
2023/11/01 14:41:40;;;;;;;3.17;1.13;;;25.50;53.90;;;;;;6173886;28;80328;-66
2023/11/01 14:44:42;;;;;;;2.65;0.90;;;25.50;53.60;;;;;;6162551;28;81854;-65
2023/11/01 14:47:42;;;;;;;1.50;0.80;;;25.50;53.50;;;;;;6175747;28;83415;-66
2023/11/01 14:50:43;;;;;;;11.65;1.33;;;25.60;53.20;;;;;;6168449;28;80604;-64
2023/11/01 14:53:43;;;;;;;1.55;0.80;;;25.40;53.40;;;;;;6131693;28;85870;-64
2023/11/01 14:56:44;;;;;;;1.52;0.95;;;25.20;54.00;;;;;;6128941;28;85487;-63
2023/11/01 14:59:44;;;;;;;4.03;1.05;;;25.30;54.30;;;;;;6163037;28;81856;-65
2023/11/01 15:02:46;;;;;;;4.57;1.10;;;25.30;54.20;;;;;;6168694;28;81438;-66
2023/11/01 15:05:46;;;;;;;2.15;0.80;;;25.20;54.60;;;;;;6170606;28;81267;-69
2023/11/01 15:08:47;;;;;;;1.80;0.85;;;25.10;54.10;;;;;;6172403;28;83408;-69
2023/11/01 15:11:48;;;;;;;1.17;0.80;;;25.10;54.40;;;;;;6168191;28;85172;-68
2023/11/01 15:14:49;;;;;;;1.50;1.00;;;25.00;54.70;;;;;;6181891;28;81091;-69
2023/11/01 15:17:51;;;;;;;1.38;0.80;;;24.90;54.80;;;;;;6165372;28;80915;-66
2023/11/01 15:20:52;;;;;;;4.93;1.33;;;24.80;54.90;;;;;;6169821;28;80695;-63
2023/11/01 15:23:52;;;;;;;4.75;1.40;;;24.70;54.80;;;;;;6208689;27;80541;-64
2023/11/01 15:26:53;;;;;;;3.00;1.33;;;24.80;54.60;;;;;;6221249;27;80576;-64
2023/11/01 15:29:53;;;;;;;6.82;1.30;;;24.80;54.60;;;;;;6203231;28;80460;-64
2023/11/01 15:32:54;;;;;;;2.13;1.08;;;24.80;55.20;;;;;;6188297;28;80071;-65
2023/11/01 15:35:54;;;;;;;3.58;1.33;;;24.80;55.40;;;;;;6179369;28;80020;-67
2023/11/01 15:38:55;;;;;;;3.70;1.20;;;24.80;55.80;;;;;;6200518;28;81433;-65